BGGH

Godthaab / Nuuk Airport

Nuuk, Greenland
METAR BGGH 220450Z AUTO 34003KT 9999NDV -RA FEW027/// BKN035/// OVC068/// 04/03 Q1004
Observed Flight Rules
Jun-22 @ 04:50 UTC (an hour ago)
Wind Clouds Conditions
340° at 3 knots
  • Few at 2,700' AGL
  • Broken at 3,500' AGL
  • Overcast at 6,800' AGL
  • Light Rain
Temperatures Readings
Current 4°C / 39°F
Dewpoint 3°C / 37°F
Humidity 93%
Altimeter 29.65" Hg
Pressure 1004 hPa
Elevation 70
METAR BGGH 220450Z AUTO 34003KT 9999NDV -RA FEW027/// BKN035/// OVC068/// 04/03 Q1004
Observed Flight Rules
Jun-22 @ 04:50 UTC
(an hour ago)
Wind
340° at 3 knots
Clouds
  • Few at 2,700' AGL
  • Broken at 3,500' AGL
  • Overcast at 6,800' AGL
Conditions
  • Light Rain
Temperature Dewpoint
4°C / 39°F 3°C / 37°F
Humidity Altimeter Pressure
93% 29.65" Hg 1004 hPa